sensor_id;sensor_type;location;lat;lon;timestamp;temperature;humidity
41344;DHT22;27089;50.022;7.604;2023-01-01T00:01:15;11.20;99.90
41344;DHT22;27089;50.022;7.604;2023-01-01T00:03:48;11.20;99.90
41344;DHT22;27089;50.022;7.604;2023-01-01T00:06:15;11.20;99.90
41344;DHT22;27089;50.022;7.604;2023-01-01T00:08:42;11.10;99.90
41344;DHT22;27089;50.022;7.604;2023-01-01T00:11:09;11.10;99.90
41344;DHT22;27089;50.022;7.604;2023-01-01T00:13:40;11.10;99.90
41344;DHT22;27089;50.022;7.604;2023-01-01T00:16:09;11.10;99.90
41344;DHT22;27089;50.022;7.604;2023-01-01T00:18:37;11.10;99.90
41344;DHT22;27089;50.022;7.604;2023-01-01T00:21:08;11.20;99.90
41344;DHT22;27089;50.022;7.604;2023-01-01T00:23:36;11.20;99.90
41344;DHT22;27089;50.022;7.604;2023-01-01T00:26:08;11.10;99.90
41344;DHT22;27089;50.022;7.604;2023-01-01T00:28:35;11.10;99.90
41344;DHT22;27089;50.022;7.604;2023-01-01T00:31:05;11.20;99.90
41344;DHT22;27089;50.022;7.604;2023-01-01T00:33:32;11.20;99.90
41344;DHT22;27089;50.022;7.604;2023-01-01T00:36:06;11.20;99.90
41344;DHT22;27089;50.022;7.604;2023-01-01T00:38:33;11.30;99.90
41344;DHT22;27089;50.022;7.604;2023-01-01T00:41:01;11.30;99.90
41344;DHT22;27089;50.022;7.604;2023-01-01T00:43:28;11.20;99.90
41344;DHT22;27089;50.022;7.604;2023-01-01T00:45:55;11.30;99.90
41344;DHT22;27089;50.022;7.604;2023-01-01T00:48:22;11.20;99.90
41344;DHT22;27089;50.022;7.604;2023-01-01T00:50:50;11.30;99.90
41344;DHT22;27089;50.022;7.604;2023-01-01T00:53:19;11.20;99.90
41344;DHT22;27089;50.022;7.604;2023-01-01T00:55:47;11.20;99.90
41344;DHT22;27089;50.022;7.604;2023-01-01T00:58:15;11.20;99.90
41344;DHT22;27089;50.022;7.604;2023-01-01T01:00:43;11.10;99.90
41344;DHT22;27089;50.022;7.604;2023-01-01T01:03:10;11.10;99.90
41344;DHT22;27089;50.022;7.604;2023-01-01T01:05:52;11.10;99.90
41344;DHT22;27089;50.022;7.604;2023-01-01T01:08:21;11.10;99.90
41344;DHT22;27089;50.022;7.604;2023-01-01T01:10:48;11.10;99.90
41344;DHT22;27089;50.022;7.604;2023-01-01T01:13:14;11.00;99.90
41344;DHT22;27089;50.022;7.604;2023-01-01T01:15:41;11.00;99.90
41344;DHT22;27089;50.022;7.604;2023-01-01T01:18:08;11.00;99.90
41344;DHT22;27089;50.022;7.604;2023-01-01T01:20:35;11.00;99.90
41344;DHT22;27089;50.022;7.604;2023-01-01T01:23:02;11.00;99.90
41344;DHT22;27089;50.022;7.604;2023-01-01T01:25:31;11.00;99.90
41344;DHT22;27089;50.022;7.604;2023-01-01T01:27:58;10.90;99.90
41344;DHT22;27089;50.022;7.604;2023-01-01T01:30:25;11.00;99.90
41344;DHT22;27089;50.022;7.604;2023-01-01T01:32:51;11.00;99.90
41344;DHT22;27089;50.022;7.604;2023-01-01T01:35:18;10.90;99.90
41344;DHT22;27089;50.022;7.604;2023-01-01T01:37:45;10.90;99.90
41344;DHT22;27089;50.022;7.604;2023-01-01T01:40:13;10.90;99.90
41344;DHT22;27089;50.022;7.604;2023-01-01T01:42:46;10.90;99.90
41344;DHT22;27089;50.022;7.604;2023-01-01T01:45:14;10.80;99.90
41344;DHT22;27089;50.022;7.604;2023-01-01T01:47:46;10.80;99.90
41344;DHT22;27089;50.022;7.604;2023-01-01T01:50:20;10.80;99.90
41344;DHT22;27089;50.022;7.604;2023-01-01T01:53:01;10.80;99.90
41344;DHT22;27089;50.022;7.604;2023-01-01T01:55:31;10.80;99.90
41344;DHT22;27089;50.022;7.604;2023-01-01T01:58:00;10.70;99.90
41344;DHT22;27089;50.022;7.604;2023-01-01T02:00:27;10.70;99.90
41344;DHT22;27089;50.022;7.604;2023-01-01T02:02:57;10.70;99.90
41344;DHT22;27089;50.022;7.604;2023-01-01T02:05:25;10.70;99.90
41344;DHT22;27089;50.022;7.604;2023-01-01T02:07:53;10.70;99.90
41344;DHT22;27089;50.022;7.604;2023-01-01T02:10:20;10.70;99.90
41344;DHT22;27089;50.022;7.604;2023-01-01T02:12:47;10.80;99.90
41344;DHT22;27089;50.022;7.604;2023-01-01T02:15:16;10.80;99.90
41344;DHT22;27089;50.022;7.604;2023-01-01T02:17:51;10.70;99.90
41344;DHT22;27089;50.022;7.604;2023-01-01T02:20:32;10.70;99.90
41344;DHT22;27089;50.022;7.604;2023-01-01T02:23:33;10.80;99.90
41344;DHT22;27089;50.022;7.604;2023-01-01T02:26:25;10.80;99.90
41344;DHT22;27089;50.022;7.604;2023-01-01T02:29:09;10.80;99.90
41344;DHT22;27089;50.022;7.604;2023-01-01T02:31:43;10.90;99.90
41344;DHT22;27089;50.022;7.604;2023-01-01T02:34:14;10.90;99.90
41344;DHT22;27089;50.022;7.604;2023-01-01T02:36:47;10.80;99.90
41344;DHT22;27089;50.022;7.604;2023-01-01T02:39:16;10.90;99.90
41344;DHT22;27089;50.022;7.604;2023-01-01T02:41:47;10.90;99.90
41344;DHT22;27089;50.022;7.604;2023-01-01T02:44:18;10.90;99.90
41344;DHT22;27089;50.022;7.604;2023-01-01T02:46:46;10.90;99.90
41344;DHT22;27089;50.022;7.604;2023-01-01T02:49:13;10.90;99.90
41344;DHT22;27089;50.022;7.604;2023-01-01T02:51:50;10.90;99.90
41344;DHT22;27089;50.022;7.604;2023-01-01T02:54:31;10.90;99.90
41344;DHT22;27089;50.022;7.604;2023-01-01T02:57:05;10.90;99.90
41344;DHT22;27089;50.022;7.604;2023-01-01T02:59:41;10.90;99.90
41344;DHT22;27089;50.022;7.604;2023-01-01T03:02:40;10.90;99.90
41344;DHT22;27089;50.022;7.604;2023-01-01T03:05:12;10.80;99.90
41344;DHT22;27089;50.022;7.604;2023-01-01T03:07:50;10.80;99.90
41344;DHT22;27089;50.022;7.604;2023-01-01T03:10:23;10.80;99.90
41344;DHT22;27089;50.022;7.604;2023-01-01T03:12:57;10.90;99.90
41344;DHT22;27089;50.022;7.604;2023-01-01T03:15:32;10.80;99.90
41344;DHT22;27089;50.022;7.604;2023-01-01T03:18:05;10.80;99.90
41344;DHT22;27089;50.022;7.604;2023-01-01T03:20:36;10.80;99.90
41344;DHT22;27089;50.022;7.604;2023-01-01T03:23:06;10.70;99.90
41344;DHT22;27089;50.022;7.604;2023-01-01T03:25:38;10.80;99.90
41344;DHT22;27089;50.022;7.604;2023-01-01T03:28:10;10.80;99.90
41344;DHT22;27089;50.022;7.604;2023-01-01T03:30:40;10.70;99.90
41344;DHT22;27089;50.022;7.604;2023-01-01T03:33:13;10.80;99.90
41344;DHT22;27089;50.022;7.604;2023-01-01T03:35:45;10.70;99.90
41344;DHT22;27089;50.022;7.604;2023-01-01T03:38:18;10.70;99.90
41344;DHT22;27089;50.022;7.604;2023-01-01T03:40:47;10.70;99.90
41344;DHT22;27089;50.022;7.604;2023-01-01T03:43:19;10.70;99.90
41344;DHT22;27089;50.022;7.604;2023-01-01T03:45:49;10.70;99.90
41344;DHT22;27089;50.022;7.604;2023-01-01T03:48:18;10.70;99.90
41344;DHT22;27089;50.022;7.604;2023-01-01T03:50:51;10.70;99.90
41344;DHT22;27089;50.022;7.604;2023-01-01T03:53:32;10.70;99.90
41344;DHT22;27089;50.022;7.604;2023-01-01T03:56:07;10.80;99.90
41344;DHT22;27089;50.022;7.604;2023-01-01T03:58:41;10.80;99.90
41344;DHT22;27089;50.022;7.604;2023-01-01T04:01:16;10.80;99.90
41344;DHT22;27089;50.022;7.604;2023-01-01T04:03:44;10.70;99.90
41344;DHT22;27089;50.022;7.604;2023-01-01T04:06:12;10.70;99.90
41344;DHT22;27089;50.022;7.604;2023-01-01T04:08:39;10.80;99.90
41344;DHT22;27089;50.022;7.604;2023-01-01T04:11:09;10.80;99.90
41344;DHT22;27089;50.022;7.604;2023-01-01T04:13:51;10.80;99.90
41344;DHT22;27089;50.022;7.604;2023-01-01T04:16:20;10.80;99.90
41344;DHT22;27089;50.022;7.604;2023-01-01T04:18:47;10.80;99.90
41344;DHT22;27089;50.022;7.604;2023-01-01T04:21:13;10.80;99.90
41344;DHT22;27089;50.022;7.604;2023-01-01T04:23:40;10.80;99.90
41344;DHT22;27089;50.022;7.604;2023-01-01T04:26:12;10.80;99.90
41344;DHT22;27089;50.022;7.604;2023-01-01T04:28:39;10.70;99.90
41344;DHT22;27089;50.022;7.604;2023-01-01T04:31:07;10.80;99.90
41344;DHT22;27089;50.022;7.604;2023-01-01T04:33:36;10.80;99.90
41344;DHT22;27089;50.022;7.604;2023-01-01T04:36:04;10.70;99.90
41344;DHT22;27089;50.022;7.604;2023-01-01T04:38:32;10.80;99.90
41344;DHT22;27089;50.022;7.604;2023-01-01T04:41:00;10.70;99.90
41344;DHT22;27089;50.022;7.604;2023-01-01T04:43:28;10.70;99.90
41344;DHT22;27089;50.022;7.604;2023-01-01T04:45:55;10.60;99.90
41344;DHT22;27089;50.022;7.604;2023-01-01T04:48:22;10.70;99.90
41344;DHT22;27089;50.022;7.604;2023-01-01T04:50:55;10.70;99.90
41344;DHT22;27089;50.022;7.604;2023-01-01T04:53:22;10.70;99.90
41344;DHT22;27089;50.022;7.604;2023-01-01T04:55:49;10.70;99.90
41344;DHT22;27089;50.022;7.604;2023-01-01T04:58:16;10.70;99.90
41344;DHT22;27089;50.022;7.604;2023-01-01T05:00:47;10.70;99.90
41344;DHT22;27089;50.022;7.604;2023-01-01T05:03:14;10.70;99.90
41344;DHT22;27089;50.022;7.604;2023-01-01T05:05:41;10.70;99.90
41344;DHT22;27089;50.022;7.604;2023-01-01T05:08:09;10.70;99.90
41344;DHT22;27089;50.022;7.604;2023-01-01T05:10:36;10.70;99.90
41344;DHT22;27089;50.022;7.604;2023-01-01T05:13:06;10.70;99.90
41344;DHT22;27089;50.022;7.604;2023-01-01T05:15:35;10.70;99.90
41344;DHT22;27089;50.022;7.604;2023-01-01T05:18:02;10.70;99.90
41344;DHT22;27089;50.022;7.604;2023-01-01T05:20:29;10.70;99.90
41344;DHT22;27089;50.022;7.604;2023-01-01T05:22:56;10.70;99.90
41344;DHT22;27089;50.022;7.604;2023-01-01T05:25:25;10.70;99.90
41344;DHT22;27089;50.022;7.604;2023-01-01T05:27:52;10.70;99.90
41344;DHT22;27089;50.022;7.604;2023-01-01T05:30:19;10.70;99.90
41344;DHT22;27089;50.022;7.604;2023-01-01T05:32:46;10.70;99.90
41344;DHT22;27089;50.022;7.604;2023-01-01T05:35:13;10.70;99.90
41344;DHT22;27089;50.022;7.604;2023-01-01T05:37:40;10.70;99.90
41344;DHT22;27089;50.022;7.604;2023-01-01T05:40:08;10.70;99.90
41344;DHT22;27089;50.022;7.604;2023-01-01T05:42:36;10.70;99.90
41344;DHT22;27089;50.022;7.604;2023-01-01T05:45:04;10.80;99.90
41344;DHT22;27089;50.022;7.604;2023-01-01T05:47:31;10.80;99.90
41344;DHT22;27089;50.022;7.604;2023-01-01T05:49:58;10.80;99.90
41344;DHT22;27089;50.022;7.604;2023-01-01T05:52:24;10.80;99.90
41344;DHT22;27089;50.022;7.604;2023-01-01T05:54:51;10.80;99.90
41344;DHT22;27089;50.022;7.604;2023-01-01T05:57:18;10.80;99.90
41344;DHT22;27089;50.022;7.604;2023-01-01T05:59:47;10.80;99.90
41344;DHT22;27089;50.022;7.604;2023-01-01T06:02:13;10.80;99.90
41344;DHT22;27089;50.022;7.604;2023-01-01T06:04:40;10.80;99.90
41344;DHT22;27089;50.022;7.604;2023-01-01T06:07:07;10.70;99.90
41344;DHT22;27089;50.022;7.604;2023-01-01T06:09:34;10.70;99.90
41344;DHT22;27089;50.022;7.604;2023-01-01T06:12:01;10.60;99.90
41344;DHT22;27089;50.022;7.604;2023-01-01T06:14:28;10.60;99.90
41344;DHT22;27089;50.022;7.604;2023-01-01T06:16:57;10.60;99.90
41344;DHT22;27089;50.022;7.604;2023-01-01T06:19:23;10.60;99.90
41344;DHT22;27089;50.022;7.604;2023-01-01T06:21:50;10.70;99.90
41344;DHT22;27089;50.022;7.604;2023-01-01T06:24:17;10.60;99.90
41344;DHT22;27089;50.022;7.604;2023-01-01T06:26:44;10.60;99.90
41344;DHT22;27089;50.022;7.604;2023-01-01T06:29:11;10.60;99.90
41344;DHT22;27089;50.022;7.604;2023-01-01T06:31:38;10.60;99.90
41344;DHT22;27089;50.022;7.604;2023-01-01T06:34:07;10.60;99.90
41344;DHT22;27089;50.022;7.604;2023-01-01T06:36:34;10.60;99.90
41344;DHT22;27089;50.022;7.604;2023-01-01T06:39:01;10.60;99.90
41344;DHT22;27089;50.022;7.604;2023-01-01T06:41:28;10.60;99.90
41344;DHT22;27089;50.022;7.604;2023-01-01T06:43:56;10.60;99.90
41344;DHT22;27089;50.022;7.604;2023-01-01T06:46:26;10.60;99.90
41344;DHT22;27089;50.022;7.604;2023-01-01T06:48:55;10.60;99.90
41344;DHT22;27089;50.022;7.604;2023-01-01T06:51:26;10.60;99.90
41344;DHT22;27089;50.022;7.604;2023-01-01T06:53:56;10.70;99.90
41344;DHT22;27089;50.022;7.604;2023-01-01T06:56:24;10.70;99.90
41344;DHT22;27089;50.022;7.604;2023-01-01T06:58:52;10.70;99.90
41344;DHT22;27089;50.022;7.604;2023-01-01T07:01:21;10.70;99.90
41344;DHT22;27089;50.022;7.604;2023-01-01T07:03:53;10.70;99.90
41344;DHT22;27089;50.022;7.604;2023-01-01T07:06:20;10.60;99.90
41344;DHT22;27089;50.022;7.604;2023-01-01T07:08:49;10.60;99.90
41344;DHT22;27089;50.022;7.604;2023-01-01T07:11:16;10.60;99.90
41344;DHT22;27089;50.022;7.604;2023-01-01T07:13:43;10.60;99.90
41344;DHT22;27089;50.022;7.604;2023-01-01T07:16:11;10.60;99.90
41344;DHT22;27089;50.022;7.604;2023-01-01T07:18:38;10.50;99.90
41344;DHT22;27089;50.022;7.604;2023-01-01T07:21:06;10.50;99.90
41344;DHT22;27089;50.022;7.604;2023-01-01T07:23:46;10.50;99.90
41344;DHT22;27089;50.022;7.604;2023-01-01T07:26:14;10.50;99.90
41344;DHT22;27089;50.022;7.604;2023-01-01T07:28:41;10.50;99.90
41344;DHT22;27089;50.022;7.604;2023-01-01T07:31:08;10.60;99.90
41344;DHT22;27089;50.022;7.604;2023-01-01T07:33:36;10.60;99.90
41344;DHT22;27089;50.022;7.604;2023-01-01T07:36:03;10.60;99.90
41344;DHT22;27089;50.022;7.604;2023-01-01T07:38:30;10.70;99.90
41344;DHT22;27089;50.022;7.604;2023-01-01T07:40:57;10.60;99.90
41344;DHT22;27089;50.022;7.604;2023-01-01T07:43:25;10.60;99.90
41344;DHT22;27089;50.022;7.604;2023-01-01T07:45:52;10.60;99.90
41344;DHT22;27089;50.022;7.604;2023-01-01T07:48:19;10.60;99.90
41344;DHT22;27089;50.022;7.604;2023-01-01T07:50:46;10.60;99.90
41344;DHT22;27089;50.022;7.604;2023-01-01T07:53:13;10.70;99.90
41344;DHT22;27089;50.022;7.604;2023-01-01T07:55:40;10.70;99.90
41344;DHT22;27089;50.022;7.604;2023-01-01T07:58:10;10.70;99.90
41344;DHT22;27089;50.022;7.604;2023-01-01T08:00:39;10.90;99.90
41344;DHT22;27089;50.022;7.604;2023-01-01T08:03:06;10.90;99.90
41344;DHT22;27089;50.022;7.604;2023-01-01T08:05:33;11.00;99.90
41344;DHT22;27089;50.022;7.604;2023-01-01T08:08:00;11.10;99.90
41344;DHT22;27089;50.022;7.604;2023-01-01T08:10:27;11.20;99.90
41344;DHT22;27089;50.022;7.604;2023-01-01T08:12:58;11.20;99.90
41344;DHT22;27089;50.022;7.604;2023-01-01T08:15:25;11.30;99.90
41344;DHT22;27089;50.022;7.604;2023-01-01T08:17:56;11.40;99.90
41344;DHT22;27089;50.022;7.604;2023-01-01T08:20:23;11.50;99.90
41344;DHT22;27089;50.022;7.604;2023-01-01T08:22:50;11.50;99.90
41344;DHT22;27089;50.022;7.604;2023-01-01T08:25:18;11.60;99.90
41344;DHT22;27089;50.022;7.604;2023-01-01T08:27:45;11.70;99.90
41344;DHT22;27089;50.022;7.604;2023-01-01T08:30:13;11.80;99.90
41344;DHT22;27089;50.022;7.604;2023-01-01T08:32:40;11.90;99.90
41344;DHT22;27089;50.022;7.604;2023-01-01T08:35:09;11.90;99.90
41344;DHT22;27089;50.022;7.604;2023-01-01T08:37:36;12.00;99.90
41344;DHT22;27089;50.022;7.604;2023-01-01T08:40:03;12.00;99.90
41344;DHT22;27089;50.022;7.604;2023-01-01T08:42:30;12.10;99.90
41344;DHT22;27089;50.022;7.604;2023-01-01T08:44:57;12.10;99.90
41344;DHT22;27089;50.022;7.604;2023-01-01T08:47:25;12.20;99.90
41344;DHT22;27089;50.022;7.604;2023-01-01T08:49:53;12.20;99.90
41344;DHT22;27089;50.022;7.604;2023-01-01T08:52:21;12.20;99.90
41344;DHT22;27089;50.022;7.604;2023-01-01T08:54:48;12.30;99.90
41344;DHT22;27089;50.022;7.604;2023-01-01T08:57:15;12.30;99.90
41344;DHT22;27089;50.022;7.604;2023-01-01T08:59:42;12.30;99.90
41344;DHT22;27089;50.022;7.604;2023-01-01T09:02:10;12.40;99.90
41344;DHT22;27089;50.022;7.604;2023-01-01T09:04:37;12.40;99.90
41344;DHT22;27089;50.022;7.604;2023-01-01T09:07:04;12.50;99.90
41344;DHT22;27089;50.022;7.604;2023-01-01T09:09:33;12.60;99.90
41344;DHT22;27089;50.022;7.604;2023-01-01T09:12:01;12.60;99.90
41344;DHT22;27089;50.022;7.604;2023-01-01T09:14:31;12.70;99.90
41344;DHT22;27089;50.022;7.604;2023-01-01T09:16:58;12.80;99.90
41344;DHT22;27089;50.022;7.604;2023-01-01T09:19:26;12.80;99.90
41344;DHT22;27089;50.022;7.604;2023-01-01T09:21:53;12.80;99.90
41344;DHT22;27089;50.022;7.604;2023-01-01T09:24:20;12.90;99.90
41344;DHT22;27089;50.022;7.604;2023-01-01T09:26:49;12.90;99.90
41344;DHT22;27089;50.022;7.604;2023-01-01T09:29:16;12.90;99.90
41344;DHT22;27089;50.022;7.604;2023-01-01T09:31:45;13.00;99.90
41344;DHT22;27089;50.022;7.604;2023-01-01T09:34:12;13.00;99.90
41344;DHT22;27089;50.022;7.604;2023-01-01T09:36:40;12.90;99.90
41344;DHT22;27089;50.022;7.604;2023-01-01T09:39:09;12.90;99.90
41344;DHT22;27089;50.022;7.604;2023-01-01T09:41:50;12.90;99.90
41344;DHT22;27089;50.022;7.604;2023-01-01T09:44:28;12.90;99.90
41344;DHT22;27089;50.022;7.604;2023-01-01T09:47:00;12.90;99.90
41344;DHT22;27089;50.022;7.604;2023-01-01T09:49:31;13.00;99.90
41344;DHT22;27089;50.022;7.604;2023-01-01T09:51:59;13.00;99.90
41344;DHT22;27089;50.022;7.604;2023-01-01T09:54:32;13.00;99.90
41344;DHT22;27089;50.022;7.604;2023-01-01T09:57:04;13.10;99.90
41344;DHT22;27089;50.022;7.604;2023-01-01T09:59:33;13.10;99.90
41344;DHT22;27089;50.022;7.604;2023-01-01T10:02:11;13.20;99.90
41344;DHT22;27089;50.022;7.604;2023-01-01T10:04:52;13.30;99.90
41344;DHT22;27089;50.022;7.604;2023-01-01T10:07:31;13.30;99.90
41344;DHT22;27089;50.022;7.604;2023-01-01T10:10:04;13.30;99.90
41344;DHT22;27089;50.022;7.604;2023-01-01T10:12:39;13.30;99.90
41344;DHT22;27089;50.022;7.604;2023-01-01T10:15:12;13.30;99.90
41344;DHT22;27089;50.022;7.604;2023-01-01T10:17:43;13.40;99.90
41344;DHT22;27089;50.022;7.604;2023-01-01T10:20:18;13.40;99.90
41344;DHT22;27089;50.022;7.604;2023-01-01T10:22:48;13.60;99.90
41344;DHT22;27089;50.022;7.604;2023-01-01T10:25:19;13.70;99.90
41344;DHT22;27089;50.022;7.604;2023-01-01T10:27:51;13.80;99.90
41344;DHT22;27089;50.022;7.604;2023-01-01T10:30:21;13.90;99.90
41344;DHT22;27089;50.022;7.604;2023-01-01T10:32:49;13.90;99.90
41344;DHT22;27089;50.022;7.604;2023-01-01T10:35:19;14.00;99.90
41344;DHT22;27089;50.022;7.604;2023-01-01T10:37:48;14.00;99.90
41344;DHT22;27089;50.022;7.604;2023-01-01T10:40:19;14.10;99.90
41344;DHT22;27089;50.022;7.604;2023-01-01T10:42:49;14.10;99.90
41344;DHT22;27089;50.022;7.604;2023-01-01T10:45:18;14.10;99.90
41344;DHT22;27089;50.022;7.604;2023-01-01T10:50:54;14.00;99.90
41344;DHT22;27089;50.022;7.604;2023-01-01T10:53:25;14.00;99.90
41344;DHT22;27089;50.022;7.604;2023-01-01T10:55:59;13.90;99.90
41344;DHT22;27089;50.022;7.604;2023-01-01T10:58:34;13.90;99.90
41344;DHT22;27089;50.022;7.604;2023-01-01T11:01:03;13.90;99.90
41344;DHT22;27089;50.022;7.604;2023-01-01T11:03:31;13.80;99.90
41344;DHT22;27089;50.022;7.604;2023-01-01T11:06:09;13.70;99.90
41344;DHT22;27089;50.022;7.604;2023-01-01T11:08:40;13.70;99.90
41344;DHT22;27089;50.022;7.604;2023-01-01T11:11:19;13.70;99.90
41344;DHT22;27089;50.022;7.604;2023-01-01T11:13:49;13.70;99.90
41344;DHT22;27089;50.022;7.604;2023-01-01T11:16:16;13.70;99.90
41344;DHT22;27089;50.022;7.604;2023-01-01T11:18:44;13.70;99.90
41344;DHT22;27089;50.022;7.604;2023-01-01T11:21:18;13.70;99.90
41344;DHT22;27089;50.022;7.604;2023-01-01T11:23:46;13.70;99.90
41344;DHT22;27089;50.022;7.604;2023-01-01T11:26:22;13.80;99.90
41344;DHT22;27089;50.022;7.604;2023-01-01T11:29:01;13.80;99.90
41344;DHT22;27089;50.022;7.604;2023-01-01T11:31:34;13.80;99.90
41344;DHT22;27089;50.022;7.604;2023-01-01T11:34:02;13.80;99.90
41344;DHT22;27089;50.022;7.604;2023-01-01T11:36:31;13.80;99.90
41344;DHT22;27089;50.022;7.604;2023-01-01T11:39:13;13.80;99.90
41344;DHT22;27089;50.022;7.604;2023-01-01T11:41:47;13.80;99.90
41344;DHT22;27089;50.022;7.604;2023-01-01T11:44:26;13.80;99.90
41344;DHT22;27089;50.022;7.604;2023-01-01T11:46:55;13.70;99.90
41344;DHT22;27089;50.022;7.604;2023-01-01T11:49:25;13.70;99.90
41344;DHT22;27089;50.022;7.604;2023-01-01T11:51:53;13.70;99.90
41344;DHT22;27089;50.022;7.604;2023-01-01T11:54:24;13.60;99.90
41344;DHT22;27089;50.022;7.604;2023-01-01T11:56:53;13.60;99.90
41344;DHT22;27089;50.022;7.604;2023-01-01T11:59:25;13.50;99.90
41344;DHT22;27089;50.022;7.604;2023-01-01T12:01:57;13.50;99.90
41344;DHT22;27089;50.022;7.604;2023-01-01T12:04:29;13.50;99.90
41344;DHT22;27089;50.022;7.604;2023-01-01T12:07:01;13.50;99.90
41344;DHT22;27089;50.022;7.604;2023-01-01T12:09:35;13.60;99.90
41344;DHT22;27089;50.022;7.604;2023-01-01T12:12:08;13.60;99.90
41344;DHT22;27089;50.022;7.604;2023-01-01T12:14:45;13.60;99.90
41344;DHT22;27089;50.022;7.604;2023-01-01T12:17:17;13.60;99.90
41344;DHT22;27089;50.022;7.604;2023-01-01T12:19:53;13.70;99.90
41344;DHT22;27089;50.022;7.604;2023-01-01T12:22:22;13.70;99.90
41344;DHT22;27089;50.022;7.604;2023-01-01T12:24:50;13.80;99.90
41344;DHT22;27089;50.022;7.604;2023-01-01T12:27:24;13.90;99.90
41344;DHT22;27089;50.022;7.604;2023-01-01T12:30:14;13.90;99.90
41344;DHT22;27089;50.022;7.604;2023-01-01T12:32:54;14.00;99.90
41344;DHT22;27089;50.022;7.604;2023-01-01T12:35:35;14.10;99.90
41344;DHT22;27089;50.022;7.604;2023-01-01T12:38:15;14.20;99.90
41344;DHT22;27089;50.022;7.604;2023-01-01T12:40:48;14.30;99.90
41344;DHT22;27089;50.022;7.604;2023-01-01T12:43:21;14.30;99.90
41344;DHT22;27089;50.022;7.604;2023-01-01T12:46:20;14.40;99.90
41344;DHT22;27089;50.022;7.604;2023-01-01T12:49:03;14.40;99.90
41344;DHT22;27089;50.022;7.604;2023-01-01T12:51:41;14.40;99.90
41344;DHT22;27089;50.022;7.604;2023-01-01T12:54:45;14.40;99.90
41344;DHT22;27089;50.022;7.604;2023-01-01T12:57:25;14.30;99.90
41344;DHT22;27089;50.022;7.604;2023-01-01T12:59:57;14.20;99.90
41344;DHT22;27089;50.022;7.604;2023-01-01T13:02:29;14.10;99.90
41344;DHT22;27089;50.022;7.604;2023-01-01T13:05:02;14.00;99.90
41344;DHT22;27089;50.022;7.604;2023-01-01T13:07:35;14.00;99.90
41344;DHT22;27089;50.022;7.604;2023-01-01T13:10:07;13.90;99.90
41344;DHT22;27089;50.022;7.604;2023-01-01T13:12:36;13.90;99.90
41344;DHT22;27089;50.022;7.604;2023-01-01T13:15:34;13.90;99.90
41344;DHT22;27089;50.022;7.604;2023-01-01T13:18:04;13.90;99.90
41344;DHT22;27089;50.022;7.604;2023-01-01T13:20:35;13.80;99.90
41344;DHT22;27089;50.022;7.604;2023-01-01T13:23:04;13.80;99.90
41344;DHT22;27089;50.022;7.604;2023-01-01T13:25:31;13.80;99.90
41344;DHT22;27089;50.022;7.604;2023-01-01T13:28:04;13.70;99.90
41344;DHT22;27089;50.022;7.604;2023-01-01T13:30:47;13.70;99.90
41344;DHT22;27089;50.022;7.604;2023-01-01T13:33:18;13.70;99.90
41344;DHT22;27089;50.022;7.604;2023-01-01T13:38:50;13.50;99.90
41344;DHT22;27089;50.022;7.604;2023-01-01T13:41:32;13.50;99.90
41344;DHT22;27089;50.022;7.604;2023-01-01T13:44:16;13.50;99.90
41344;DHT22;27089;50.022;7.604;2023-01-01T13:46:53;13.60;99.90
41344;DHT22;27089;50.022;7.604;2023-01-01T13:49:33;13.60;99.90
41344;DHT22;27089;50.022;7.604;2023-01-01T13:55:35;13.70;99.90
41344;DHT22;27089;50.022;7.604;2023-01-01T13:58:31;13.70;99.90
41344;DHT22;27089;50.022;7.604;2023-01-01T14:01:18;13.80;99.90
41344;DHT22;27089;50.022;7.604;2023-01-01T14:03:51;13.70;99.90
41344;DHT22;27089;50.022;7.604;2023-01-01T14:06:27;13.70;99.90
41344;DHT22;27089;50.022;7.604;2023-01-01T14:09:01;13.60;99.90
41344;DHT22;27089;50.022;7.604;2023-01-01T14:11:28;13.60;99.90
41344;DHT22;27089;50.022;7.604;2023-01-01T14:13:55;13.40;99.90
41344;DHT22;27089;50.022;7.604;2023-01-01T14:16:24;13.40;99.90
41344;DHT22;27089;50.022;7.604;2023-01-01T14:18:55;13.40;99.90
41344;DHT22;27089;50.022;7.604;2023-01-01T14:21:26;13.30;99.90
41344;DHT22;27089;50.022;7.604;2023-01-01T14:23:56;13.30;99.90
41344;DHT22;27089;50.022;7.604;2023-01-01T14:26:25;13.30;99.90
41344;DHT22;27089;50.022;7.604;2023-01-01T14:28:54;13.20;99.90
41344;DHT22;27089;50.022;7.604;2023-01-01T14:31:24;13.20;99.90
41344;DHT22;27089;50.022;7.604;2023-01-01T14:33:52;13.10;99.90
41344;DHT22;27089;50.022;7.604;2023-01-01T14:36:21;13.10;99.90
41344;DHT22;27089;50.022;7.604;2023-01-01T14:38:52;13.00;99.90
41344;DHT22;27089;50.022;7.604;2023-01-01T14:41:24;13.00;99.90
41344;DHT22;27089;50.022;7.604;2023-01-01T14:43:56;12.90;99.90
41344;DHT22;27089;50.022;7.604;2023-01-01T14:46:24;12.90;99.90
41344;DHT22;27089;50.022;7.604;2023-01-01T14:48:54;12.90;99.90
41344;DHT22;27089;50.022;7.604;2023-01-01T14:51:23;12.90;99.90
41344;DHT22;27089;50.022;7.604;2023-01-01T14:53:54;12.80;99.90
41344;DHT22;27089;50.022;7.604;2023-01-01T14:56:24;12.80;99.90
41344;DHT22;27089;50.022;7.604;2023-01-01T14:58:52;12.80;99.90
41344;DHT22;27089;50.022;7.604;2023-01-01T15:01:23;12.70;99.90
41344;DHT22;27089;50.022;7.604;2023-01-01T15:03:58;12.70;99.90
41344;DHT22;27089;50.022;7.604;2023-01-01T15:06:25;12.70;99.90
41344;DHT22;27089;50.022;7.604;2023-01-01T15:08:54;12.60;99.90
41344;DHT22;27089;50.022;7.604;2023-01-01T15:11:22;12.60;99.90
41344;DHT22;27089;50.022;7.604;2023-01-01T15:13:55;12.60;99.90
41344;DHT22;27089;50.022;7.604;2023-01-01T15:16:22;12.60;99.90
41344;DHT22;27089;50.022;7.604;2023-01-01T15:18:50;12.60;99.90
41344;DHT22;27089;50.022;7.604;2023-01-01T15:21:33;12.50;99.90
41344;DHT22;27089;50.022;7.604;2023-01-01T15:24:08;12.50;99.90
41344;DHT22;27089;50.022;7.604;2023-01-01T15:26:39;12.50;99.90
41344;DHT22;27089;50.022;7.604;2023-01-01T15:29:09;12.50;99.90
41344;DHT22;27089;50.022;7.604;2023-01-01T15:31:38;12.50;99.90
41344;DHT22;27089;50.022;7.604;2023-01-01T15:34:24;12.50;99.90
41344;DHT22;27089;50.022;7.604;2023-01-01T15:36:54;12.40;99.90
41344;DHT22;27089;50.022;7.604;2023-01-01T15:39:23;12.40;99.90
41344;DHT22;27089;50.022;7.604;2023-01-01T15:41:51;12.40;99.90
41344;DHT22;27089;50.022;7.604;2023-01-01T15:44:27;12.40;99.90
41344;DHT22;27089;50.022;7.604;2023-01-01T15:47:04;12.30;99.90
41344;DHT22;27089;50.022;7.604;2023-01-01T15:49:32;12.30;99.90
41344;DHT22;27089;50.022;7.604;2023-01-01T15:52:02;12.30;99.90
41344;DHT22;27089;50.022;7.604;2023-01-01T15:54:36;12.30;99.90
41344;DHT22;27089;50.022;7.604;2023-01-01T15:57:12;12.30;99.90
41344;DHT22;27089;50.022;7.604;2023-01-01T15:59:42;12.30;99.90
41344;DHT22;27089;50.022;7.604;2023-01-01T16:02:13;12.30;99.90